sensor_id;sensor_type;location;lat;lon;timestamp;temperature;humidity
16200;DHT22;8207;52.494;4.654;2022-09-03T00:00:04;17.80;1.00
16200;DHT22;8207;52.494;4.654;2022-09-03T00:02:37;17.80;1.00
16200;DHT22;8207;52.494;4.654;2022-09-03T00:05:10;17.80;1.00
16200;DHT22;8207;52.494;4.654;2022-09-03T00:07:45;17.70;1.00
16200;DHT22;8207;52.494;4.654;2022-09-03T00:10:16;17.70;1.00
16200;DHT22;8207;52.494;4.654;2022-09-03T00:12:46;17.70;1.00
16200;DHT22;8207;52.494;4.654;2022-09-03T00:15:17;17.70;1.00
16200;DHT22;8207;52.494;4.654;2022-09-03T00:17:47;17.70;1.00
16200;DHT22;8207;52.494;4.654;2022-09-03T00:20:20;17.70;1.00
16200;DHT22;8207;52.494;4.654;2022-09-03T00:22:50;17.60;1.00
16200;DHT22;8207;52.494;4.654;2022-09-03T00:25:22;17.60;1.00
16200;DHT22;8207;52.494;4.654;2022-09-03T00:27:53;17.50;1.00
16200;DHT22;8207;52.494;4.654;2022-09-03T00:30:22;17.50;1.00
16200;DHT22;8207;52.494;4.654;2022-09-03T00:32:55;17.40;1.00
16200;DHT22;8207;52.494;4.654;2022-09-03T00:35:27;17.40;18.80
16200;DHT22;8207;52.494;4.654;2022-09-03T00:37:56;17.40;37.80
16200;DHT22;8207;52.494;4.654;2022-09-03T00:40:47;17.40;99.90
16200;DHT22;8207;52.494;4.654;2022-09-03T00:43:24;17.40;99.90
16200;DHT22;8207;52.494;4.654;2022-09-03T00:46:05;17.40;99.90
16200;DHT22;8207;52.494;4.654;2022-09-03T00:48:45;17.40;99.90
16200;DHT22;8207;52.494;4.654;2022-09-03T00:51:22;17.30;1.00
16200;DHT22;8207;52.494;4.654;2022-09-03T00:53:56;17.30;99.90
16200;DHT22;8207;52.494;4.654;2022-09-03T00:56:31;17.30;99.90
16200;DHT22;8207;52.494;4.654;2022-09-03T00:59:20;17.30;1.00
16200;DHT22;8207;52.494;4.654;2022-09-03T01:02:00;17.30;99.90
16200;DHT22;8207;52.494;4.654;2022-09-03T01:04:39;17.20;99.90
16200;DHT22;8207;52.494;4.654;2022-09-03T01:07:21;17.20;1.00
16200;DHT22;8207;52.494;4.654;2022-09-03T01:09:54;17.20;1.00
16200;DHT22;8207;52.494;4.654;2022-09-03T01:12:34;17.20;1.00
16200;DHT22;8207;52.494;4.654;2022-09-03T01:15:09;17.10;1.00
16200;DHT22;8207;52.494;4.654;2022-09-03T01:17:55;17.10;1.00
16200;DHT22;8207;52.494;4.654;2022-09-03T01:20:37;17.00;1.00
16200;DHT22;8207;52.494;4.654;2022-09-03T01:26:27;17.00;1.00
16200;DHT22;8207;52.494;4.654;2022-09-03T01:29:03;17.00;1.00
16200;DHT22;8207;52.494;4.654;2022-09-03T01:31:42;17.00;1.00
16200;DHT22;8207;52.494;4.654;2022-09-03T01:34:19;17.00;1.00
16200;DHT22;8207;52.494;4.654;2022-09-03T01:36:59;17.00;1.00
16200;DHT22;8207;52.494;4.654;2022-09-03T01:39:35;16.90;1.00
16200;DHT22;8207;52.494;4.654;2022-09-03T01:42:13;16.90;1.00
16200;DHT22;8207;52.494;4.654;2022-09-03T01:45:12;16.90;1.00
16200;DHT22;8207;52.494;4.654;2022-09-03T01:47:58;16.90;1.00
16200;DHT22;8207;52.494;4.654;2022-09-03T01:50:38;16.90;1.00
16200;DHT22;8207;52.494;4.654;2022-09-03T01:53:16;16.80;1.00
16200;DHT22;8207;52.494;4.654;2022-09-03T01:55:59;16.80;1.00
16200;DHT22;8207;52.494;4.654;2022-09-03T01:58:33;16.80;1.00
16200;DHT22;8207;52.494;4.654;2022-09-03T02:01:09;16.80;1.00
16200;DHT22;8207;52.494;4.654;2022-09-03T02:03:40;16.80;1.00
16200;DHT22;8207;52.494;4.654;2022-09-03T02:06:10;16.80;1.00
16200;DHT22;8207;52.494;4.654;2022-09-03T02:08:38;16.80;1.00
16200;DHT22;8207;52.494;4.654;2022-09-03T02:11:07;16.80;1.00
16200;DHT22;8207;52.494;4.654;2022-09-03T02:13:37;16.80;1.00
16200;DHT22;8207;52.494;4.654;2022-09-03T02:16:09;16.70;1.00
16200;DHT22;8207;52.494;4.654;2022-09-03T02:18:40;16.70;1.00
16200;DHT22;8207;52.494;4.654;2022-09-03T02:21:08;16.70;15.40
16200;DHT22;8207;52.494;4.654;2022-09-03T02:23:38;16.70;99.90
16200;DHT22;8207;52.494;4.654;2022-09-03T02:26:07;16.70;99.90
16200;DHT22;8207;52.494;4.654;2022-09-03T02:28:35;16.60;1.00
16200;DHT22;8207;52.494;4.654;2022-09-03T02:31:02;16.60;1.00
16200;DHT22;8207;52.494;4.654;2022-09-03T02:33:34;16.60;1.00
16200;DHT22;8207;52.494;4.654;2022-09-03T02:36:03;16.60;1.00
16200;DHT22;8207;52.494;4.654;2022-09-03T02:38:30;16.50;5.30
16200;DHT22;8207;52.494;4.654;2022-09-03T02:40:57;16.50;99.90
16200;DHT22;8207;52.494;4.654;2022-09-03T02:43:28;16.50;33.50
16200;DHT22;8207;52.494;4.654;2022-09-03T02:46:01;16.50;1.00
16200;DHT22;8207;52.494;4.654;2022-09-03T02:48:30;16.50;1.00
16200;DHT22;8207;52.494;4.654;2022-09-03T02:50:57;16.50;1.00
16200;DHT22;8207;52.494;4.654;2022-09-03T02:53:24;16.40;21.20
16200;DHT22;8207;52.494;4.654;2022-09-03T02:55:57;16.40;1.00
16200;DHT22;8207;52.494;4.654;2022-09-03T02:58:24;16.40;99.90
16200;DHT22;8207;52.494;4.654;2022-09-03T03:00:51;16.30;99.90
16200;DHT22;8207;52.494;4.654;2022-09-03T03:03:18;16.30;99.90
16200;DHT22;8207;52.494;4.654;2022-09-03T03:05:49;16.20;1.00
16200;DHT22;8207;52.494;4.654;2022-09-03T03:08:17;16.20;1.00
16200;DHT22;8207;52.494;4.654;2022-09-03T03:10:46;16.20;1.00
16200;DHT22;8207;52.494;4.654;2022-09-03T03:13:14;16.20;1.00
16200;DHT22;8207;52.494;4.654;2022-09-03T03:15:41;16.10;1.00
16200;DHT22;8207;52.494;4.654;2022-09-03T03:18:09;16.20;99.90
16200;DHT22;8207;52.494;4.654;2022-09-03T03:20:36;16.10;1.00
16200;DHT22;8207;52.494;4.654;2022-09-03T03:23:04;16.00;1.00
16200;DHT22;8207;52.494;4.654;2022-09-03T03:25:32;16.00;1.00
16200;DHT22;8207;52.494;4.654;2022-09-03T03:27:59;16.00;99.90
16200;DHT22;8207;52.494;4.654;2022-09-03T03:30:26;16.00;99.90
16200;DHT22;8207;52.494;4.654;2022-09-03T03:32:53;16.00;1.00
16200;DHT22;8207;52.494;4.654;2022-09-03T03:35:20;15.90;19.20
16200;DHT22;8207;52.494;4.654;2022-09-03T03:37:48;16.00;99.90
16200;DHT22;8207;52.494;4.654;2022-09-03T03:40:16;15.90;99.90
16200;DHT22;8207;52.494;4.654;2022-09-03T03:42:44;15.90;99.90
16200;DHT22;8207;52.494;4.654;2022-09-03T03:45:11;15.80;1.00
16200;DHT22;8207;52.494;4.654;2022-09-03T03:47:38;15.80;1.00
16200;DHT22;8207;52.494;4.654;2022-09-03T03:50:05;15.80;1.00
16200;DHT22;8207;52.494;4.654;2022-09-03T03:52:33;15.80;1.00
16200;DHT22;8207;52.494;4.654;2022-09-03T03:55:00;15.80;1.00
16200;DHT22;8207;52.494;4.654;2022-09-03T03:57:29;15.70;1.00
16200;DHT22;8207;52.494;4.654;2022-09-03T03:59:57;15.80;1.00
16200;DHT22;8207;52.494;4.654;2022-09-03T04:02:24;15.70;1.00
16200;DHT22;8207;52.494;4.654;2022-09-03T04:04:51;15.70;1.00
16200;DHT22;8207;52.494;4.654;2022-09-03T04:07:17;15.70;1.00
16200;DHT22;8207;52.494;4.654;2022-09-03T04:09:44;15.70;1.00
16200;DHT22;8207;52.494;4.654;2022-09-03T04:12:11;15.70;1.00
16200;DHT22;8207;52.494;4.654;2022-09-03T04:14:40;15.70;1.00
16200;DHT22;8207;52.494;4.654;2022-09-03T04:17:07;15.60;1.00
16200;DHT22;8207;52.494;4.654;2022-09-03T04:19:34;15.60;1.00
16200;DHT22;8207;52.494;4.654;2022-09-03T04:22:01;15.60;1.00
16200;DHT22;8207;52.494;4.654;2022-09-03T04:24:28;15.60;1.00
16200;DHT22;8207;52.494;4.654;2022-09-03T04:26:55;15.50;1.00
16200;DHT22;8207;52.494;4.654;2022-09-03T04:29:21;15.60;1.00
16200;DHT22;8207;52.494;4.654;2022-09-03T04:31:50;15.60;1.00
16200;DHT22;8207;52.494;4.654;2022-09-03T04:34:34;15.50;1.00
16200;DHT22;8207;52.494;4.654;2022-09-03T04:37:01;15.50;1.00
16200;DHT22;8207;52.494;4.654;2022-09-03T04:39:28;15.50;1.00
16200;DHT22;8207;52.494;4.654;2022-09-03T04:41:55;15.50;1.00
16200;DHT22;8207;52.494;4.654;2022-09-03T04:44:22;15.50;1.00
16200;DHT22;8207;52.494;4.654;2022-09-03T04:46:50;15.50;1.00
16200;DHT22;8207;52.494;4.654;2022-09-03T04:49:17;15.50;1.00
16200;DHT22;8207;52.494;4.654;2022-09-03T04:51:45;15.40;1.00
16200;DHT22;8207;52.494;4.654;2022-09-03T04:54:11;15.40;1.00
16200;DHT22;8207;52.494;4.654;2022-09-03T04:56:38;15.40;1.00
16200;DHT22;8207;52.494;4.654;2022-09-03T04:59:07;15.40;1.00
16200;DHT22;8207;52.494;4.654;2022-09-03T05:01:36;15.40;1.00
16200;DHT22;8207;52.494;4.654;2022-09-03T05:04:06;15.40;1.00
16200;DHT22;8207;52.494;4.654;2022-09-03T05:06:34;15.40;1.00
16200;DHT22;8207;52.494;4.654;2022-09-03T05:09:01;15.40;1.00
16200;DHT22;8207;52.494;4.654;2022-09-03T05:11:29;15.40;1.00
16200;DHT22;8207;52.494;4.654;2022-09-03T05:13:57;15.30;1.00
16200;DHT22;8207;52.494;4.654;2022-09-03T05:16:25;15.40;1.00
16200;DHT22;8207;52.494;4.654;2022-09-03T05:18:56;15.30;1.00
16200;DHT22;8207;52.494;4.654;2022-09-03T05:21:26;15.30;1.00
16200;DHT22;8207;52.494;4.654;2022-09-03T05:23:53;15.30;1.00
16200;DHT22;8207;52.494;4.654;2022-09-03T05:26:22;15.40;1.00
16200;DHT22;8207;52.494;4.654;2022-09-03T05:28:53;15.40;1.00
16200;DHT22;8207;52.494;4.654;2022-09-03T05:31:21;15.40;1.00
16200;DHT22;8207;52.494;4.654;2022-09-03T05:33:52;15.40;1.00
16200;DHT22;8207;52.494;4.654;2022-09-03T05:36:20;15.40;1.00
16200;DHT22;8207;52.494;4.654;2022-09-03T05:38:49;15.40;1.00
16200;DHT22;8207;52.494;4.654;2022-09-03T05:41:19;15.40;1.00
16200;DHT22;8207;52.494;4.654;2022-09-03T05:43:47;15.40;1.00
16200;DHT22;8207;52.494;4.654;2022-09-03T05:46:18;15.40;1.00
16200;DHT22;8207;52.494;4.654;2022-09-03T05:48:52;15.40;1.00
16200;DHT22;8207;52.494;4.654;2022-09-03T05:51:19;15.50;1.00
16200;DHT22;8207;52.494;4.654;2022-09-03T05:53:49;15.50;1.00
16200;DHT22;8207;52.494;4.654;2022-09-03T05:56:19;15.50;1.00
16200;DHT22;8207;52.494;4.654;2022-09-03T05:58:48;15.50;1.00
16200;DHT22;8207;52.494;4.654;2022-09-03T06:01:18;15.50;1.00
16200;DHT22;8207;52.494;4.654;2022-09-03T06:03:46;15.60;1.00
16200;DHT22;8207;52.494;4.654;2022-09-03T06:06:14;15.60;1.00
16200;DHT22;8207;52.494;4.654;2022-09-03T06:08:41;15.60;1.00
16200;DHT22;8207;52.494;4.654;2022-09-03T06:11:10;15.60;1.00
16200;DHT22;8207;52.494;4.654;2022-09-03T06:13:37;15.70;1.00
16200;DHT22;8207;52.494;4.654;2022-09-03T06:16:06;15.70;1.00
16200;DHT22;8207;52.494;4.654;2022-09-03T06:18:33;15.70;1.00
16200;DHT22;8207;52.494;4.654;2022-09-03T06:21:02;15.70;1.00
16200;DHT22;8207;52.494;4.654;2022-09-03T06:23:30;15.80;1.00
16200;DHT22;8207;52.494;4.654;2022-09-03T06:26:02;15.80;1.00
16200;DHT22;8207;52.494;4.654;2022-09-03T06:28:31;15.90;1.00
16200;DHT22;8207;52.494;4.654;2022-09-03T06:30:59;15.90;1.00
16200;DHT22;8207;52.494;4.654;2022-09-03T06:33:28;15.90;1.00
16200;DHT22;8207;52.494;4.654;2022-09-03T06:35:57;15.90;1.00
16200;DHT22;8207;52.494;4.654;2022-09-03T06:38:24;16.00;1.00
16200;DHT22;8207;52.494;4.654;2022-09-03T06:40:53;16.10;1.00
16200;DHT22;8207;52.494;4.654;2022-09-03T06:43:20;16.20;1.00
16200;DHT22;8207;52.494;4.654;2022-09-03T06:45:56;16.20;1.00
16200;DHT22;8207;52.494;4.654;2022-09-03T06:48:24;16.30;1.00
16200;DHT22;8207;52.494;4.654;2022-09-03T06:50:55;16.30;1.00
16200;DHT22;8207;52.494;4.654;2022-09-03T06:53:24;16.30;1.00
16200;DHT22;8207;52.494;4.654;2022-09-03T06:55:55;16.40;1.00
16200;DHT22;8207;52.494;4.654;2022-09-03T06:58:22;16.50;1.00
16200;DHT22;8207;52.494;4.654;2022-09-03T07:00:49;16.50;1.00
16200;DHT22;8207;52.494;4.654;2022-09-03T07:03:19;16.50;1.00
16200;DHT22;8207;52.494;4.654;2022-09-03T07:05:46;16.60;1.00
16200;DHT22;8207;52.494;4.654;2022-09-03T07:08:13;16.70;1.00
16200;DHT22;8207;52.494;4.654;2022-09-03T07:10:43;16.70;1.00
16200;DHT22;8207;52.494;4.654;2022-09-03T07:13:11;16.80;1.00
16200;DHT22;8207;52.494;4.654;2022-09-03T07:15:38;16.90;1.00
16200;DHT22;8207;52.494;4.654;2022-09-03T07:18:05;17.00;1.00
16200;DHT22;8207;52.494;4.654;2022-09-03T07:20:34;17.00;1.00
16200;DHT22;8207;52.494;4.654;2022-09-03T07:23:01;17.10;1.00
16200;DHT22;8207;52.494;4.654;2022-09-03T07:25:28;17.20;1.00
16200;DHT22;8207;52.494;4.654;2022-09-03T07:27:56;17.30;1.00
16200;DHT22;8207;52.494;4.654;2022-09-03T07:30:23;17.50;1.00
16200;DHT22;8207;52.494;4.654;2022-09-03T07:32:51;17.60;1.00
16200;DHT22;8207;52.494;4.654;2022-09-03T07:35:18;17.70;1.00
16200;DHT22;8207;52.494;4.654;2022-09-03T07:37:46;17.80;1.00
16200;DHT22;8207;52.494;4.654;2022-09-03T07:40:13;17.90;99.90
16200;DHT22;8207;52.494;4.654;2022-09-03T07:42:43;18.00;1.00
16200;DHT22;8207;52.494;4.654;2022-09-03T07:45:13;18.10;99.90
16200;DHT22;8207;52.494;4.654;2022-09-03T07:47:46;18.10;99.90
16200;DHT22;8207;52.494;4.654;2022-09-03T07:50:14;18.20;99.90
16200;DHT22;8207;52.494;4.654;2022-09-03T07:52:42;18.30;99.90
16200;DHT22;8207;52.494;4.654;2022-09-03T07:55:10;18.40;1.00
16200;DHT22;8207;52.494;4.654;2022-09-03T07:57:37;18.60;1.00
16200;DHT22;8207;52.494;4.654;2022-09-03T08:00:05;18.70;1.00
16200;DHT22;8207;52.494;4.654;2022-09-03T08:02:32;18.90;1.00
16200;DHT22;8207;52.494;4.654;2022-09-03T08:04:59;19.20;1.00
16200;DHT22;8207;52.494;4.654;2022-09-03T08:07:28;19.40;99.90
16200;DHT22;8207;52.494;4.654;2022-09-03T08:09:54;19.70;94.30
16200;DHT22;8207;52.494;4.654;2022-09-03T08:12:23;19.90;1.00
16200;DHT22;8207;52.494;4.654;2022-09-03T08:14:50;20.20;29.30
16200;DHT22;8207;52.494;4.654;2022-09-03T08:17:16;20.50;1.00
16200;DHT22;8207;52.494;4.654;2022-09-03T08:19:43;20.80;1.00
16200;DHT22;8207;52.494;4.654;2022-09-03T08:22:10;21.10;1.00
16200;DHT22;8207;52.494;4.654;2022-09-03T08:24:37;21.30;99.90
16200;DHT22;8207;52.494;4.654;2022-09-03T08:27:05;21.60;99.90
16200;DHT22;8207;52.494;4.654;2022-09-03T08:29:33;21.90;99.90
16200;DHT22;8207;52.494;4.654;2022-09-03T08:32:00;22.10;99.90
16200;DHT22;8207;52.494;4.654;2022-09-03T08:34:27;22.20;99.90
16200;DHT22;8207;52.494;4.654;2022-09-03T08:36:54;22.40;99.90
16200;DHT22;8207;52.494;4.654;2022-09-03T08:39:21;22.50;99.90
16200;DHT22;8207;52.494;4.654;2022-09-03T08:42:08;22.80;99.90
16200;DHT22;8207;52.494;4.654;2022-09-03T08:44:43;23.00;99.90
16200;DHT22;8207;52.494;4.654;2022-09-03T08:47:15;23.10;99.90
16200;DHT22;8207;52.494;4.654;2022-09-03T08:49:45;23.30;99.90
16200;DHT22;8207;52.494;4.654;2022-09-03T08:52:22;23.40;99.90
16200;DHT22;8207;52.494;4.654;2022-09-03T08:54:57;23.50;99.90
16200;DHT22;8207;52.494;4.654;2022-09-03T08:57:40;23.70;99.90
16200;DHT22;8207;52.494;4.654;2022-09-03T09:00:11;23.70;99.90
16200;DHT22;8207;52.494;4.654;2022-09-03T09:02:45;23.90;99.90
16200;DHT22;8207;52.494;4.654;2022-09-03T09:05:16;24.10;99.90
16200;DHT22;8207;52.494;4.654;2022-09-03T09:07:48;24.30;99.90
16200;DHT22;8207;52.494;4.654;2022-09-03T09:10:23;24.50;99.90
16200;DHT22;8207;52.494;4.654;2022-09-03T09:13:02;24.70;99.90
16200;DHT22;8207;52.494;4.654;2022-09-03T09:15:42;24.80;99.90
16200;DHT22;8207;52.494;4.654;2022-09-03T09:18:20;24.80;99.90
16200;DHT22;8207;52.494;4.654;2022-09-03T09:20:50;24.90;99.90
16200;DHT22;8207;52.494;4.654;2022-09-03T09:23:25;24.90;99.90
16200;DHT22;8207;52.494;4.654;2022-09-03T09:25:55;25.00;99.90
16200;DHT22;8207;52.494;4.654;2022-09-03T09:28:24;25.20;99.90
16200;DHT22;8207;52.494;4.654;2022-09-03T09:30:56;25.30;99.90
16200;DHT22;8207;52.494;4.654;2022-09-03T09:33:23;25.30;99.90
16200;DHT22;8207;52.494;4.654;2022-09-03T09:35:50;25.40;99.90
16200;DHT22;8207;52.494;4.654;2022-09-03T09:38:27;25.30;99.90
16200;DHT22;8207;52.494;4.654;2022-09-03T09:40:55;25.30;99.90
16200;DHT22;8207;52.494;4.654;2022-09-03T09:43:24;25.30;99.90
16200;DHT22;8207;52.494;4.654;2022-09-03T09:45:52;25.40;99.90
16200;DHT22;8207;52.494;4.654;2022-09-03T09:48:24;25.40;99.90
16200;DHT22;8207;52.494;4.654;2022-09-03T09:51:04;25.40;99.90
16200;DHT22;8207;52.494;4.654;2022-09-03T09:53:31;25.50;99.90
16200;DHT22;8207;52.494;4.654;2022-09-03T09:55:59;25.50;99.90
16200;DHT22;8207;52.494;4.654;2022-09-03T09:58:28;25.70;99.90
16200;DHT22;8207;52.494;4.654;2022-09-03T10:00:59;25.60;99.90
16200;DHT22;8207;52.494;4.654;2022-09-03T10:03:31;25.60;99.90
16200;DHT22;8207;52.494;4.654;2022-09-03T10:06:08;25.50;99.90
16200;DHT22;8207;52.494;4.654;2022-09-03T10:09:04;25.80;99.90
16200;DHT22;8207;52.494;4.654;2022-09-03T10:11:33;26.00;99.90
16200;DHT22;8207;52.494;4.654;2022-09-03T10:14:09;26.10;99.90
16200;DHT22;8207;52.494;4.654;2022-09-03T10:16:41;26.30;99.90
16200;DHT22;8207;52.494;4.654;2022-09-03T10:19:15;26.50;99.90
16200;DHT22;8207;52.494;4.654;2022-09-03T10:21:46;26.70;99.90
16200;DHT22;8207;52.494;4.654;2022-09-03T10:24:27;26.80;99.90
16200;DHT22;8207;52.494;4.654;2022-09-03T10:26:57;26.70;99.90
16200;DHT22;8207;52.494;4.654;2022-09-03T10:29:24;26.50;99.90
16200;DHT22;8207;52.494;4.654;2022-09-03T10:32:03;26.50;99.90
16200;DHT22;8207;52.494;4.654;2022-09-03T10:34:41;26.80;99.90
16200;DHT22;8207;52.494;4.654;2022-09-03T10:37:18;26.90;99.90
16200;DHT22;8207;52.494;4.654;2022-09-03T10:40:11;27.00;99.90
16200;DHT22;8207;52.494;4.654;2022-09-03T10:42:44;27.10;99.90
16200;DHT22;8207;52.494;4.654;2022-09-03T10:45:17;27.20;99.90
16200;DHT22;8207;52.494;4.654;2022-09-03T10:48:15;27.10;99.90
16200;DHT22;8207;52.494;4.654;2022-09-03T10:50:49;27.30;99.90
16200;DHT22;8207;52.494;4.654;2022-09-03T10:53:27;27.50;99.90
16200;DHT22;8207;52.494;4.654;2022-09-03T10:55:58;27.70;99.90
16200;DHT22;8207;52.494;4.654;2022-09-03T10:58:52;27.70;99.90
16200;DHT22;8207;52.494;4.654;2022-09-03T11:01:30;28.00;99.90
16200;DHT22;8207;52.494;4.654;2022-09-03T11:04:15;27.80;99.90
16200;DHT22;8207;52.494;4.654;2022-09-03T11:06:51;27.90;99.90
16200;DHT22;8207;52.494;4.654;2022-09-03T11:09:21;27.80;99.90
16200;DHT22;8207;52.494;4.654;2022-09-03T11:11:53;28.10;99.90
16200;DHT22;8207;52.494;4.654;2022-09-03T11:14:29;28.20;99.90
16200;DHT22;8207;52.494;4.654;2022-09-03T11:17:02;28.30;99.90
16200;DHT22;8207;52.494;4.654;2022-09-03T11:19:33;28.40;99.90
16200;DHT22;8207;52.494;4.654;2022-09-03T11:22:05;28.40;99.90
16200;DHT22;8207;52.494;4.654;2022-09-03T11:24:34;28.40;99.90
16200;DHT22;8207;52.494;4.654;2022-09-03T11:27:17;28.40;99.90
16200;DHT22;8207;52.494;4.654;2022-09-03T11:29:49;28.50;99.90
16200;DHT22;8207;52.494;4.654;2022-09-03T11:32:20;28.50;99.90
16200;DHT22;8207;52.494;4.654;2022-09-03T11:34:51;28.50;99.90
16200;DHT22;8207;52.494;4.654;2022-09-03T11:37:22;28.70;99.90
16200;DHT22;8207;52.494;4.654;2022-09-03T11:39:57;28.90;99.90
16200;DHT22;8207;52.494;4.654;2022-09-03T11:42:35;28.90;99.90
16200;DHT22;8207;52.494;4.654;2022-09-03T11:45:19;28.90;99.90
16200;DHT22;8207;52.494;4.654;2022-09-03T11:47:47;28.90;99.90
16200;DHT22;8207;52.494;4.654;2022-09-03T11:50:21;29.00;99.90
16200;DHT22;8207;52.494;4.654;2022-09-03T11:52:50;28.80;99.90
16200;DHT22;8207;52.494;4.654;2022-09-03T11:55:25;28.70;99.90
16200;DHT22;8207;52.494;4.654;2022-09-03T11:57:54;28.60;99.90
16200;DHT22;8207;52.494;4.654;2022-09-03T12:00:21;28.50;99.90
16200;DHT22;8207;52.494;4.654;2022-09-03T12:02:53;28.60;99.90
16200;DHT22;8207;52.494;4.654;2022-09-03T12:05:27;28.80;99.90
16200;DHT22;8207;52.494;4.654;2022-09-03T12:08:09;29.00;99.90
16200;DHT22;8207;52.494;4.654;2022-09-03T12:10:50;29.00;99.90
16200;DHT22;8207;52.494;4.654;2022-09-03T12:13:30;29.00;99.90
16200;DHT22;8207;52.494;4.654;2022-09-03T12:16:27;29.00;99.90
16200;DHT22;8207;52.494;4.654;2022-09-03T12:19:03;29.10;99.90
16200;DHT22;8207;52.494;4.654;2022-09-03T12:21:37;29.00;99.90
16200;DHT22;8207;52.494;4.654;2022-09-03T12:24:07;29.20;99.90
16200;DHT22;8207;52.494;4.654;2022-09-03T12:26:39;29.20;99.90
16200;DHT22;8207;52.494;4.654;2022-09-03T12:29:20;29.20;99.90
16200;DHT22;8207;52.494;4.654;2022-09-03T12:31:48;29.40;99.90
16200;DHT22;8207;52.494;4.654;2022-09-03T12:34:17;29.40;99.90
16200;DHT22;8207;52.494;4.654;2022-09-03T12:36:46;29.60;99.90
16200;DHT22;8207;52.494;4.654;2022-09-03T12:39:17;29.60;99.90
16200;DHT22;8207;52.494;4.654;2022-09-03T12:41:58;29.60;99.60
16200;DHT22;8207;52.494;4.654;2022-09-03T12:44:27;29.70;99.90
16200;DHT22;8207;52.494;4.654;2022-09-03T12:47:04;29.60;99.60
16200;DHT22;8207;52.494;4.654;2022-09-03T12:49:36;29.50;98.60
16200;DHT22;8207;52.494;4.654;2022-09-03T12:52:07;29.70;99.00
16200;DHT22;8207;52.494;4.654;2022-09-03T12:54:43;29.70;98.60
16200;DHT22;8207;52.494;4.654;2022-09-03T12:57:17;29.60;98.00
16200;DHT22;8207;52.494;4.654;2022-09-03T12:59:47;29.80;98.70
16200;DHT22;8207;52.494;4.654;2022-09-03T13:02:19;29.80;98.90
16200;DHT22;8207;52.494;4.654;2022-09-03T13:04:47;29.50;95.60
16200;DHT22;8207;52.494;4.654;2022-09-03T13:07:23;29.50;96.60
16200;DHT22;8207;52.494;4.654;2022-09-03T13:09:59;29.60;96.10
16200;DHT22;8207;52.494;4.654;2022-09-03T13:12:32;29.50;96.10
16200;DHT22;8207;52.494;4.654;2022-09-03T13:15:05;29.50;94.50
16200;DHT22;8207;52.494;4.654;2022-09-03T13:17:56;29.40;94.10
16200;DHT22;8207;52.494;4.654;2022-09-03T13:20:34;29.50;94.60
16200;DHT22;8207;52.494;4.654;2022-09-03T13:23:13;29.50;94.40
16200;DHT22;8207;52.494;4.654;2022-09-03T13:25:51;29.40;94.40
16200;DHT22;8207;52.494;4.654;2022-09-03T13:28:31;29.50;93.60
16200;DHT22;8207;52.494;4.654;2022-09-03T13:31:07;29.50;93.60
16200;DHT22;8207;52.494;4.654;2022-09-03T13:33:42;29.60;93.20
16200;DHT22;8207;52.494;4.654;2022-09-03T13:36:15;29.50;93.40
16200;DHT22;8207;52.494;4.654;2022-09-03T13:38:52;29.60;92.00
16200;DHT22;8207;52.494;4.654;2022-09-03T13:41:33;29.60;90.30
16200;DHT22;8207;52.494;4.654;2022-09-03T13:44:06;29.70;90.80
16200;DHT22;8207;52.494;4.654;2022-09-03T13:46:40;29.60;89.00
16200;DHT22;8207;52.494;4.654;2022-09-03T13:49:19;29.40;87.40
16200;DHT22;8207;52.494;4.654;2022-09-03T13:52:12;29.40;88.50
16200;DHT22;8207;52.494;4.654;2022-09-03T13:54:52;29.40;87.40
16200;DHT22;8207;52.494;4.654;2022-09-03T13:57:31;29.20;86.60
16200;DHT22;8207;52.494;4.654;2022-09-03T14:00:02;29.30;85.30
16200;DHT22;8207;52.494;4.654;2022-09-03T14:02:45;29.20;82.60
16200;DHT22;8207;52.494;4.654;2022-09-03T14:05:18;29.20;82.00
16200;DHT22;8207;52.494;4.654;2022-09-03T14:08:00;29.10;82.70
16200;DHT22;8207;52.494;4.654;2022-09-03T14:10:41;29.10;83.50
16200;DHT22;8207;52.494;4.654;2022-09-03T14:13:17;29.20;84.20
16200;DHT22;8207;52.494;4.654;2022-09-03T14:15:56;29.20;80.80
16200;DHT22;8207;52.494;4.654;2022-09-03T14:18:34;29.20;80.90
16200;DHT22;8207;52.494;4.654;2022-09-03T14:21:07;29.20;78.30
16200;DHT22;8207;52.494;4.654;2022-09-03T14:23:41;29.10;79.50
16200;DHT22;8207;52.494;4.654;2022-09-03T14:26:16;29.10;79.50
16200;DHT22;8207;52.494;4.654;2022-09-03T14:28:47;29.10;78.60
16200;DHT22;8207;52.494;4.654;2022-09-03T14:31:23;29.00;75.10
16200;DHT22;8207;52.494;4.654;2022-09-03T14:33:59;29.00;74.90
16200;DHT22;8207;52.494;4.654;2022-09-03T14:36:36;29.00;75.00
16200;DHT22;8207;52.494;4.654;2022-09-03T14:39:25;29.00;75.80
16200;DHT22;8207;52.494;4.654;2022-09-03T14:42:09;28.90;73.80
16200;DHT22;8207;52.494;4.654;2022-09-03T14:44:55;28.90;74.20
16200;DHT22;8207;52.494;4.654;2022-09-03T14:47:37;28.80;73.00
16200;DHT22;8207;52.494;4.654;2022-09-03T14:50:18;28.80;70.90
16200;DHT22;8207;52.494;4.654;2022-09-03T14:53:20;28.70;69.20
16200;DHT22;8207;52.494;4.654;2022-09-03T14:56:13;28.70;69.50
16200;DHT22;8207;52.494;4.654;2022-09-03T14:59:08;28.70;71.40
16200;DHT22;8207;52.494;4.654;2022-09-03T15:01:40;28.70;91.10
16200;DHT22;8207;52.494;4.654;2022-09-03T15:04:37;28.60;70.90
16200;DHT22;8207;52.494;4.654;2022-09-03T15:07:21;28.50;70.60
16200;DHT22;8207;52.494;4.654;2022-09-03T15:09:56;28.40;66.10
16200;DHT22;8207;52.494;4.654;2022-09-03T15:12:33;28.30;69.10
16200;DHT22;8207;52.494;4.654;2022-09-03T15:15:07;28.20;68.40
16200;DHT22;8207;52.494;4.654;2022-09-03T15:17:50;28.20;68.30
16200;DHT22;8207;52.494;4.654;2022-09-03T15:20:24;28.10;67.90
16200;DHT22;8207;52.494;4.654;2022-09-03T15:23:06;28.10;68.60
16200;DHT22;8207;52.494;4.654;2022-09-03T15:26:05;28.10;68.00
16200;DHT22;8207;52.494;4.654;2022-09-03T15:28:44;28.00;67.20
16200;DHT22;8207;52.494;4.654;2022-09-03T15:31:19;27.80;68.90
16200;DHT22;8207;52.494;4.654;2022-09-03T15:33:56;27.70;65.90
16200;DHT22;8207;52.494;4.654;2022-09-03T15:36:34;27.70;88.10
16200;DHT22;8207;52.494;4.654;2022-09-03T15:39:05;27.70;65.50
16200;DHT22;8207;52.494;4.654;2022-09-03T15:41:39;27.50;64.30
16200;DHT22;8207;52.494;4.654;2022-09-03T15:44:11;27.40;65.30
16200;DHT22;8207;52.494;4.654;2022-09-03T15:46:48;27.40;67.40
16200;DHT22;8207;52.494;4.654;2022-09-03T15:49:25;27.40;67.80
16200;DHT22;8207;52.494;4.654;2022-09-03T15:52:07;27.30;67.20
16200;DHT22;8207;52.494;4.654;2022-09-03T15:54:41;27.30;66.40
16200;DHT22;8207;52.494;4.654;2022-09-03T15:57:12;27.20;66.60
16200;DHT22;8207;52.494;4.654;2022-09-03T15:59:50;27.20;66.40
16200;DHT22;8207;52.494;4.654;2022-09-03T16:02:22;27.10;63.70
16200;DHT22;8207;52.494;4.654;2022-09-03T16:05:02;27.00;64.30
16200;DHT22;8207;52.494;4.654;2022-09-03T16:07:47;27.00;63.30
16200;DHT22;8207;52.494;4.654;2022-09-03T16:10:34;26.90;63.50
16200;DHT22;8207;52.494;4.654;2022-09-03T16:13:08;26.90;62.40
16200;DHT22;8207;52.494;4.654;2022-09-03T16:15:48;26.80;63.70
16200;DHT22;8207;52.494;4.654;2022-09-03T16:18:25;26.70;66.50
16200;DHT22;8207;52.494;4.654;2022-09-03T16:20:59;26.60;64.40
16200;DHT22;8207;52.494;4.654;2022-09-03T16:23:31;26.60;62.70
16200;DHT22;8207;52.494;4.654;2022-09-03T16:26:06;26.50;61.50
16200;DHT22;8207;52.494;4.654;2022-09-03T16:28:42;26.40;61.40
16200;DHT22;8207;52.494;4.654;2022-09-03T16:31:18;26.40;60.40